Accueil
METAR-TAF:

METAR-TAF

Aéroports :

Aéroport international de Shijiazhuang Zhengding

Shijiazhuang, Chine

latitude: 38-16-51N, longitude: 114-41-48E, altitude: 233 m

Observation

Le bulletin a été fait il y a 1 heure et 2 minutes, à 14:00 UTC
Vent 2 kt de ouest/nord-ouest
Température 5°C
Humidité 100%
Pression 1029 hPa
Visibilité 10 km ou plus
pas de nuages en-dessous de 1500 mètres et pas de cumulonimbus.

METAR: ZBSJ 091400Z 30001MPS CAVOK 05/05 Q1029 NOSIG

Heure: 23:02 (15:02 UTC)

Prévision

Le bulletin a été fait il y a 7 heures et 54 minutes, à 07:08 UTC
Prévision valable du 09 à 12 UTC au 10 à 12 UTC
Vent 8 kt de est/nord-est
Visibilité: 5000 m
Ciel couvert à une hauteur de 4000 ft
brume

TAF: ZBSJ 090708Z 0912/1012 06004MPS 5000 BR OVC040 TX08/1007Z TN03/0921Z

Observations et prévisions météorologiques de plus de 4000 aéroports (messages METAR et TAF).

Les stations disponibles sont représentées par des disques jaunes et rouges sur la carte.

Passer la souris dessus pour voir le nom de la station.

Cliquer dessus pour voir les observations et prévisions météorologiques.

Pour changer de carte: cliquez sur les boutons verts avec une croix noire pour zoomer, sur le bouton vert avec un tiret pour effectuer un zoom arrière, ou sur les flèches vertes pour les cartes adjacentes.


METAR-TAF: